KLOT/LOT METAR and TAF weather

Enter ICAO airport designator
Station Type Date Time Source
KLOT METAR 2020/10/29 16:55 UTC NOAA

KLOT 291655Z AUTO 01013G18KT 10SM SCT016 BKN027 OVC038 09/06 A2986 RMK AO2 T00910057


Station Type Date Time Source
KLOT Decoded METAR 2020/10/29 16:55 UTC NOAA

Chicago/Romeoville, Lewis University Airport, IL, United States (KLOT) 41-36-30N 088-05-39W
Oct 29, 2020 - 12:55 PM EDT / 2020.10.29 1655 UTC
Wind: from the N (010 degrees) at 15 MPH (13 KT) gusting to 21 MPH (18 KT):0
Visibility: 10 mile(s):0
Sky conditions: overcast
Temperature: 48.4 F (9.1 C)
Dew Point: 42.3 F (5.7 C)
Relative Humidity: 79%
Pressure (altimeter): 29.86 in. Hg (1011 hPa)
ob: KLOT 291655Z AUTO 01013G18KT 10SM SCT016 BKN027 OVC038 09/06 A2986 RMK AO2 T00910057
cycle: 17

Station Type Date Time Source
KLOT TAF UTC NOAA

Error!

Example: see airport list